createdAt,value
2016-05-03T00:00:39.883Z,993.04
2016-05-03T00:01:39.886Z,992.99
2016-05-03T00:02:39.888Z,993.01
2016-05-03T00:03:39.891Z,993.01
2016-05-03T00:04:39.879Z,992.96
2016-05-03T00:05:39.882Z,992.95
2016-05-03T00:06:39.884Z,992.91
2016-05-03T00:07:39.887Z,992.92
2016-05-03T00:08:39.873Z,992.95
2016-05-03T00:09:39.893Z,992.88
2016-05-03T00:10:39.879Z,992.9
2016-05-03T00:11:39.882Z,992.86
2016-05-03T00:12:39.885Z,992.9
2016-05-03T00:13:39.887Z,992.81
2016-05-03T00:14:39.874Z,992.87
2016-05-03T00:15:39.862Z,992.84
2016-05-03T00:16:39.879Z,992.84
2016-05-03T00:17:39.867Z,992.85
2016-05-03T00:18:39.870Z,992.87
2016-05-03T00:19:39.857Z,992.84
2016-05-03T00:20:39.875Z,992.89
2016-05-03T00:21:39.878Z,992.9
2016-05-03T00:22:39.865Z,992.85
2016-05-03T00:23:39.852Z,992.88
2016-05-03T00:24:39.855Z,992.86
2016-05-03T00:25:39.862Z,992.86
2016-05-03T00:26:39.846Z,992.83
2016-05-03T00:27:39.849Z,992.89
2016-05-03T00:28:39.866Z,992.84
2016-05-03T00:29:39.852Z,992.84
2016-05-03T00:30:39.843Z,992.81
2016-05-03T00:31:39.847Z,992.8
2016-05-03T00:32:39.850Z,992.8
2016-05-03T00:33:39.837Z,992.85
2016-05-03T00:34:39.839Z,992.85
2016-05-03T00:35:39.843Z,992.86
2016-05-03T00:36:39.845Z,992.88
2016-05-03T00:37:39.835Z,992.84
2016-05-03T00:38:39.838Z,992.83
2016-05-03T00:39:39.840Z,992.8
2016-05-03T00:40:39.827Z,992.81
2016-05-03T00:41:39.829Z,992.79
2016-05-03T00:42:39.833Z,992.76
2016-05-03T00:43:39.835Z,992.74
2016-05-03T00:44:39.823Z,992.77
2016-05-03T00:45:39.825Z,992.75
2016-05-03T00:46:39.828Z,992.78
2016-05-03T00:47:39.815Z,992.76
2016-05-03T00:48:39.818Z,992.75
2016-05-03T00:49:39.820Z,992.76
2016-05-03T00:50:39.807Z,992.78
2016-05-03T00:51:39.826Z,992.81
2016-05-03T00:52:39.812Z,992.82
2016-05-03T00:53:39.815Z,992.83
2016-05-03T00:54:39.818Z,992.82
2016-05-03T00:55:39.805Z,992.81
2016-05-03T00:56:39.808Z,992.85
2016-05-03T00:57:39.811Z,992.83
2016-05-03T00:58:39.797Z,992.81
2016-05-03T00:59:39.800Z,992.8
2016-05-03T01:00:39.803Z,992.81
2016-05-03T01:01:39.805Z,992.83
2016-05-03T01:02:39.794Z,992.86
2016-05-03T01:03:39.796Z,992.84
2016-05-03T01:04:39.798Z,992.8
2016-05-03T01:05:39.786Z,992.85
2016-05-03T01:06:39.788Z,992.78
2016-05-03T01:07:39.791Z,992.81
2016-05-03T01:08:39.777Z,992.79
2016-05-03T01:09:39.781Z,992.75
2016-05-03T01:10:39.782Z,992.74
2016-05-03T01:11:39.786Z,992.73
2016-05-03T01:12:39.773Z,992.71
2016-05-03T01:13:39.775Z,992.71
2016-05-03T01:14:39.779Z,992.72
2016-05-03T01:15:39.765Z,992.68
2016-05-03T01:16:39.768Z,992.7
2016-05-03T01:17:39.770Z,992.68
2016-05-03T01:18:39.774Z,992.69
2016-05-03T01:19:39.760Z,992.71
2016-05-03T01:20:39.763Z,992.7
2016-05-03T01:21:39.765Z,992.72
2016-05-03T01:22:39.753Z,992.73
2016-05-03T01:23:39.756Z,992.74
2016-05-03T01:24:39.759Z,992.73
2016-05-03T01:25:39.761Z,992.75
2016-05-03T01:26:39.764Z,992.77
2016-05-03T01:27:39.751Z,992.75
2016-05-03T01:28:39.753Z,992.78
2016-05-03T01:29:39.741Z,992.77
2016-05-03T01:30:39.743Z,992.74
2016-05-03T01:31:39.747Z,992.76
2016-05-03T01:32:39.733Z,992.77
2016-05-03T01:33:39.736Z,992.72
2016-05-03T01:34:39.739Z,992.72
2016-05-03T01:35:39.741Z,992.71
2016-05-03T01:36:39.728Z,992.71
2016-05-03T01:37:39.728Z,992.74
2016-05-03T01:38:39.731Z,992.72
2016-05-03T01:39:39.733Z,992.7
2016-05-03T01:40:39.721Z,992.68
2016-05-03T01:41:39.724Z,992.67
2016-05-03T01:42:39.727Z,992.64
2016-05-03T01:43:39.713Z,992.65
2016-05-03T01:44:39.716Z,992.67
2016-05-03T01:45:39.718Z,992.6
2016-05-03T01:46:39.705Z,992.58
2016-05-03T01:47:39.708Z,992.55
2016-05-03T01:48:39.711Z,992.56
2016-05-03T01:49:39.698Z,992.58
2016-05-03T01:50:39.701Z,992.54
2016-05-03T01:51:39.704Z,992.53
2016-05-03T01:52:39.706Z,992.55
2016-05-03T01:53:39.694Z,992.55
2016-05-03T01:54:39.696Z,992.56
2016-05-03T01:55:39.698Z,992.57
2016-05-03T01:56:39.687Z,992.65
2016-05-03T01:57:39.689Z,992.64
2016-05-03T01:58:39.691Z,992.61
2016-05-03T01:59:39.678Z,992.64
2016-05-03T02:00:39.697Z,992.66
2016-05-03T02:01:39.684Z,992.64
2016-05-03T02:02:39.686Z,992.66
2016-05-03T02:03:39.673Z,992.65
2016-05-03T02:04:39.676Z,992.69
2016-05-03T02:05:39.664Z,992.71
2016-05-03T02:06:39.667Z,992.71
2016-05-03T02:07:39.668Z,992.71
2016-05-03T02:08:39.656Z,992.79
2016-05-03T02:09:39.674Z,992.77
2016-05-03T02:10:39.661Z,992.8
2016-05-03T02:11:39.664Z,992.79
2016-05-03T02:12:39.650Z,992.8
2016-05-03T02:13:39.653Z,992.86
2016-05-03T02:14:39.656Z,992.85
2016-05-03T02:15:39.643Z,992.89
2016-05-03T02:16:39.646Z,992.85
2016-05-03T02:17:39.649Z,992.9
2016-05-03T02:18:39.651Z,992.87
2016-05-03T02:19:39.638Z,992.86
2016-05-03T02:20:39.641Z,992.87
2016-05-03T02:21:39.629Z,992.86
2016-05-03T02:22:39.631Z,992.87
2016-05-03T02:23:39.634Z,992.86
2016-05-03T02:24:39.620Z,992.85
2016-05-03T02:25:39.623Z,992.88
2016-05-03T02:26:39.626Z,992.9
2016-05-03T02:27:39.629Z,992.87
2016-05-03T02:28:39.631Z,992.9
2016-05-03T02:29:39.618Z,992.86
2016-05-03T02:30:39.621Z,992.84
2016-05-03T02:31:39.609Z,992.89
2016-05-03T02:32:39.611Z,992.92
2016-05-03T02:33:39.597Z,992.84
2016-05-03T02:34:39.601Z,992.88
2016-05-03T02:35:39.603Z,992.81
2016-05-03T02:36:39.590Z,992.82
2016-05-03T02:37:39.592Z,992.88
2016-05-03T02:38:39.596Z,992.82
2016-05-03T02:39:39.583Z,992.78
2016-05-03T02:40:39.600Z,992.81
2016-05-03T02:41:39.588Z,992.77
2016-05-03T02:42:39.591Z,992.71
2016-05-03T02:43:39.578Z,992.72
2016-05-03T02:44:39.581Z,992.71
2016-05-03T02:45:39.568Z,992.73
2016-05-03T02:46:39.571Z,992.71
2016-05-03T02:47:39.574Z,992.7
2016-05-03T02:48:39.576Z,992.73
2016-05-03T02:49:39.579Z,992.71
2016-05-03T02:50:39.565Z,992.75
2016-05-03T02:51:39.553Z,992.71
2016-05-03T02:52:39.555Z,992.76
2016-05-03T02:53:39.558Z,992.76
2016-05-03T02:54:39.561Z,992.7
2016-05-03T02:55:39.564Z,992.72
2016-05-03T02:56:39.551Z,992.66
2016-05-03T02:57:39.554Z,992.67
2016-05-03T02:58:39.541Z,992.66
2016-05-03T02:59:39.543Z,992.63
2016-05-03T03:00:39.530Z,992.63
2016-05-03T03:01:39.532Z,992.65
2016-05-03T03:02:39.535Z,992.63
2016-05-03T03:03:39.523Z,992.65
2016-05-03T03:04:39.541Z,992.66
2016-05-03T03:05:39.528Z,992.62
2016-05-03T03:06:39.515Z,992.62
2016-05-03T03:07:39.518Z,992.65
2016-05-03T03:08:39.520Z,992.6
2016-05-03T03:09:39.522Z,992.61
2016-05-03T03:10:39.526Z,992.61
2016-05-03T03:11:39.513Z,992.58
2016-05-03T03:12:39.516Z,992.61
2016-05-03T03:13:39.502Z,992.61
2016-05-03T03:14:39.506Z,992.58
2016-05-03T03:15:39.508Z,992.63
2016-05-03T03:16:39.495Z,992.64
2016-05-03T03:17:39.498Z,992.63
2016-05-03T03:18:39.485Z,992.64
2016-05-03T03:19:39.503Z,992.69
2016-05-03T03:20:39.490Z,992.66
2016-05-03T03:21:39.477Z,992.71
2016-05-03T03:22:39.652Z,992.68
2016-05-03T03:23:39.483Z,992.67
2016-05-03T03:24:39.485Z,992.59
2016-05-03T03:25:39.472Z,992.63
2016-05-03T03:26:39.474Z,992.59
2016-05-03T03:27:39.477Z,992.61
2016-05-03T03:28:39.480Z,992.61
2016-05-03T03:29:39.468Z,992.59
2016-05-03T03:30:39.471Z,992.63
2016-05-03T03:31:39.458Z,992.68
2016-05-03T03:32:39.460Z,992.65
2016-05-03T03:33:39.463Z,992.64
2016-05-03T03:34:39.465Z,992.64
2016-05-03T03:35:39.453Z,992.67
2016-05-03T03:36:39.456Z,992.68
2016-05-03T03:37:39.442Z,992.63
2016-05-03T03:38:39.445Z,992.62
2016-05-03T03:39:39.432Z,992.65
2016-05-03T03:40:39.434Z,992.64
2016-05-03T03:41:39.437Z,992.64
2016-05-03T03:42:39.440Z,992.63
2016-05-03T03:43:39.428Z,992.61
2016-05-03T03:44:39.431Z,992.64
2016-05-03T03:45:39.416Z,992.62
2016-05-03T03:46:39.419Z,992.64
2016-05-03T03:47:39.422Z,992.67
2016-05-03T03:48:39.409Z,992.69
2016-05-03T03:49:39.427Z,992.7
2016-05-03T03:50:39.415Z,992.72
2016-05-03T03:51:39.402Z,992.71
2016-05-03T03:52:39.420Z,992.73
2016-05-03T03:53:39.407Z,992.7
2016-05-03T03:54:39.394Z,992.7
2016-05-03T03:55:39.396Z,992.7
2016-05-03T03:56:39.416Z,992.67
2016-05-03T03:57:39.402Z,992.72
2016-05-03T03:58:39.389Z,992.67
2016-05-03T03:59:39.392Z,992.75
2016-05-03T04:00:39.395Z,992.75
2016-05-03T04:01:39.382Z,992.73
2016-05-03T04:02:39.385Z,992.75
2016-05-03T04:03:39.387Z,992.73
2016-05-03T04:04:39.374Z,992.73
2016-05-03T04:05:39.377Z,992.7
2016-05-03T04:06:39.380Z,992.71
2016-05-03T04:07:39.367Z,992.74
2016-05-03T04:08:39.369Z,992.72
2016-05-03T04:09:39.356Z,992.7
2016-05-03T04:10:39.359Z,992.74
2016-05-03T04:11:39.362Z,992.69
2016-05-03T04:12:39.349Z,992.71
2016-05-03T04:13:39.368Z,992.73
2016-05-03T04:14:39.353Z,992.74
2016-05-03T04:15:39.356Z,992.8
2016-05-03T04:16:39.359Z,992.82
2016-05-03T04:17:39.347Z,992.77
2016-05-03T04:18:39.350Z,992.77
2016-05-03T04:19:39.336Z,992.82
2016-05-03T04:20:39.339Z,992.79
2016-05-03T04:21:39.331Z,992.81
2016-05-03T04:22:39.380Z,992.84
2016-05-03T04:23:39.430Z,992.82
2016-05-03T04:24:39.479Z,992.77
2016-05-03T04:25:39.513Z,992.83
2016-05-03T04:26:39.558Z,992.79
2016-05-03T04:27:39.578Z,992.83
2016-05-03T04:28:39.580Z,992.82
2016-05-03T04:29:39.600Z,992.82
2016-05-03T04:30:39.619Z,992.87
2016-05-03T04:31:39.622Z,992.88
2016-05-03T04:32:39.630Z,992.9
2016-05-03T04:33:39.640Z,992.92
2016-05-03T04:34:39.633Z,992.9
2016-05-03T04:35:39.642Z,992.89
2016-05-03T04:36:39.649Z,992.9
2016-05-03T04:37:39.639Z,992.9
2016-05-03T04:38:39.644Z,992.92
2016-05-03T04:39:39.648Z,992.92
2016-05-03T04:40:39.654Z,992.89
2016-05-03T04:41:39.659Z,992.93
2016-05-03T04:42:39.647Z,992.93
2016-05-03T04:43:39.651Z,992.87
2016-05-03T04:44:39.654Z,992.91
2016-05-03T04:45:39.658Z,992.94
2016-05-03T04:46:39.645Z,992.95
2016-05-03T04:47:39.648Z,992.99
2016-05-03T04:48:39.651Z,992.97
2016-05-03T04:49:39.639Z,993.01
2016-05-03T04:50:39.626Z,993.02
2016-05-03T04:51:39.629Z,992.99
2016-05-03T04:52:39.632Z,993.04
2016-05-03T04:53:39.634Z,992.97
2016-05-03T04:54:39.637Z,993.03
2016-05-03T04:55:39.624Z,993.02
2016-05-03T04:56:39.627Z,993.04
2016-05-03T04:57:39.629Z,993.03
2016-05-03T04:58:39.617Z,993.03
2016-05-03T04:59:39.620Z,993.07
2016-05-03T05:00:39.622Z,993.12
2016-05-03T05:01:39.609Z,993.08
2016-05-03T05:02:39.612Z,993.06
2016-05-03T05:03:39.615Z,993.07
2016-05-03T05:04:39.617Z,993.07
2016-05-03T05:05:39.604Z,993.12
2016-05-03T05:06:39.606Z,993.09
2016-05-03T05:07:40.391Z,993.07
2016-05-03T05:08:39.612Z,993.04
2016-05-03T05:09:39.615Z,993.08
2016-05-03T05:10:39.602Z,993.06
2016-05-03T05:11:39.589Z,993.05
2016-05-03T05:12:39.592Z,993.09
2016-05-03T05:13:39.594Z,993.11
2016-05-03T05:14:39.582Z,993.11
2016-05-03T05:15:39.585Z,993.09
2016-05-03T05:16:39.587Z,993.11
2016-05-03T05:17:39.574Z,993.09
2016-05-03T05:18:39.577Z,993.13
2016-05-03T05:19:39.579Z,993.13
2016-05-03T05:20:39.566Z,993.16
2016-05-03T05:21:39.569Z,993.21
2016-05-03T05:22:39.822Z,993.24
2016-05-03T05:23:39.559Z,993.27
2016-05-03T05:24:39.593Z,993.28
2016-05-03T05:25:39.565Z,993.32
2016-05-03T05:26:39.567Z,993.37
2016-05-03T05:27:39.570Z,993.37
2016-05-03T05:28:39.556Z,993.35
2016-05-03T05:29:39.575Z,993.37
2016-05-03T05:30:39.562Z,993.37
2016-05-03T05:31:39.565Z,993.3
2016-05-03T05:32:39.567Z,993.34
2016-05-03T05:33:39.570Z,993.34
2016-05-03T05:34:39.573Z,993.37
2016-05-03T05:35:39.575Z,993.33
2016-05-03T05:36:39.562Z,993.35
2016-05-03T05:37:41.003Z,993.31
2016-05-03T05:38:39.583Z,993.31
2016-05-03T05:39:39.571Z,993.32
2016-05-03T05:40:39.573Z,993.34
2016-05-03T05:41:39.575Z,993.33
2016-05-03T05:42:39.563Z,993.37
2016-05-03T05:43:39.566Z,993.31
2016-05-03T05:44:39.568Z,993.34
2016-05-03T05:45:39.571Z,993.34
2016-05-03T05:46:39.574Z,993.29
2016-05-03T05:47:39.592Z,993.31
2016-05-03T05:48:39.594Z,993.34
2016-05-03T05:49:39.582Z,993.3
2016-05-03T05:50:39.585Z,993.32
2016-05-03T05:51:39.603Z,993.32
2016-05-03T05:52:39.746Z,993.34
2016-05-03T05:53:39.608Z,993.3
2016-05-03T05:54:39.611Z,993.27
2016-05-03T05:55:39.613Z,993.27
2016-05-03T05:56:39.616Z,993.25
2016-05-03T05:57:39.619Z,993.31
2016-05-03T05:58:39.653Z,993.25
2016-05-03T05:59:39.656Z,993.29
2016-05-03T06:00:39.659Z,993.28
2016-05-03T06:01:39.661Z,993.26
2016-05-03T06:02:39.648Z,993.32
2016-05-03T06:03:39.650Z,993.27
2016-05-03T06:04:39.654Z,993.23
2016-05-03T06:05:39.657Z,993.21
2016-05-03T06:06:39.659Z,993.19
2016-05-03T06:07:39.677Z,993.13
2016-05-03T06:08:39.680Z,993.24
2016-05-03T06:09:39.683Z,993.22
2016-05-03T06:10:39.686Z,993.17
2016-05-03T06:11:39.704Z,993.17
2016-05-03T06:12:39.722Z,993.17
2016-05-03T06:13:39.708Z,993.18
2016-05-03T06:14:39.712Z,993.14
2016-05-03T06:15:39.714Z,993.12
2016-05-03T06:16:39.717Z,993.17
2016-05-03T06:17:39.736Z,993.14
2016-05-03T06:18:39.723Z,993.16
2016-05-03T06:19:39.725Z,993.17
2016-05-03T06:20:39.744Z,993.19
2016-05-03T06:21:39.730Z,993.2
2016-05-03T06:22:39.874Z,993.23
2016-05-03T06:23:39.736Z,993.26
2016-05-03T06:24:39.739Z,993.32
2016-05-03T06:25:39.757Z,993.29
2016-05-03T06:26:39.759Z,993.31
2016-05-03T06:27:39.763Z,993.22
2016-05-03T06:28:39.765Z,993.28
2016-05-03T06:29:39.768Z,993.25
2016-05-03T06:30:39.771Z,993.27
2016-05-03T06:31:39.773Z,993.26
2016-05-03T06:32:39.776Z,993.26
2016-05-03T06:33:39.779Z,993.21
2016-05-03T06:34:39.797Z,993.18
2016-05-03T06:35:39.784Z,993.23
2016-05-03T06:36:39.803Z,993.2
2016-05-03T06:37:39.821Z,993.24
2016-05-03T06:38:39.807Z,993.24
2016-05-03T06:39:39.811Z,993.23
2016-05-03T06:40:39.828Z,993.24
2016-05-03T06:41:39.816Z,993.24
2016-05-03T06:42:39.834Z,993.25
2016-05-03T06:43:39.837Z,993.24
2016-05-03T06:44:39.839Z,993.3
2016-05-03T06:45:39.841Z,993.34
2016-05-03T06:46:39.860Z,993.31
2016-05-03T06:47:39.863Z,993.31
2016-05-03T06:48:39.866Z,993.28
2016-05-03T06:49:39.884Z,993.3
2016-05-03T06:50:39.886Z,993.3
2016-05-03T06:51:39.889Z,993.29
2016-05-03T06:52:39.892Z,993.34
2016-05-03T06:53:39.894Z,993.35
2016-05-03T06:54:39.913Z,993.31
2016-05-03T06:55:39.915Z,993.35
2016-05-03T06:56:39.919Z,993.33
2016-05-03T06:57:39.921Z,993.32
2016-05-03T06:58:39.940Z,993.42
2016-05-03T06:59:39.943Z,993.36
2016-05-03T07:00:39.945Z,993.38
2016-05-03T07:01:39.948Z,993.41
2016-05-03T07:02:39.951Z,993.4
2016-05-03T07:03:39.968Z,993.38
2016-05-03T07:04:39.971Z,993.33
2016-05-03T07:05:39.990Z,993.41
2016-05-03T07:06:39.993Z,993.4
2016-05-03T07:07:39.995Z,993.47
2016-05-03T07:08:39.998Z,993.4
2016-05-03T07:09:40.000Z,993.36
2016-05-03T07:10:40.003Z,993.45
2016-05-03T07:11:40.022Z,993.42
2016-05-03T07:12:40.025Z,993.49
2016-05-03T07:13:40.043Z,993.48
2016-05-03T07:14:40.030Z,993.45
2016-05-03T07:15:40.048Z,993.45
2016-05-03T07:16:40.050Z,993.44
2016-05-03T07:17:40.053Z,993.43
2016-05-03T07:18:40.072Z,993.44
2016-05-03T07:19:40.089Z,993.47
2016-05-03T07:20:40.077Z,993.45
2016-05-03T07:21:40.080Z,993.49
2016-05-03T07:22:40.552Z,993.51
2016-05-03T07:23:40.100Z,993.47
2016-05-03T07:24:40.119Z,993.5
2016-05-03T07:25:40.106Z,993.53
2016-05-03T07:26:40.124Z,993.51
2016-05-03T07:27:40.127Z,993.5
2016-05-03T07:28:40.129Z,993.52
2016-05-03T07:29:40.133Z,993.52
2016-05-03T07:30:40.151Z,993.53
2016-05-03T07:31:40.154Z,993.52
2016-05-03T07:32:40.157Z,993.56
2016-05-03T07:33:40.174Z,993.53
2016-05-03T07:34:40.177Z,993.52
2016-05-03T07:35:40.179Z,993.56
2016-05-03T07:36:40.182Z,993.53
2016-05-03T07:37:40.201Z,993.59
2016-05-03T07:38:40.203Z,993.59
2016-05-03T07:39:40.207Z,993.57
2016-05-03T07:40:40.209Z,993.6
2016-05-03T07:41:40.228Z,993.6
2016-05-03T07:42:40.231Z,993.57
2016-05-03T07:43:40.248Z,993.62
2016-05-03T07:44:40.251Z,993.59
2016-05-03T07:45:40.253Z,993.6
2016-05-03T07:46:40.256Z,993.58
2016-05-03T07:47:40.275Z,993.58
2016-05-03T07:48:40.278Z,993.6
2016-05-03T07:49:40.280Z,993.62
2016-05-03T07:50:40.283Z,993.6
2016-05-03T07:51:40.301Z,993.65
2016-05-03T07:52:40.303Z,993.62
2016-05-03T07:53:40.306Z,993.65
2016-05-03T07:54:40.309Z,993.69
2016-05-03T07:55:40.312Z,993.62
2016-05-03T07:56:40.330Z,993.61
2016-05-03T07:57:40.332Z,993.62
2016-05-03T07:58:40.335Z,993.59
2016-05-03T07:59:40.354Z,993.6
2016-05-03T08:00:40.372Z,993.63
2016-05-03T08:01:40.360Z,993.61
2016-05-03T08:02:40.378Z,993.54
2016-05-03T08:03:40.380Z,993.53
2016-05-03T08:04:40.383Z,993.52
2016-05-03T08:05:40.386Z,993.52
2016-05-03T08:06:40.404Z,993.6
2016-05-03T08:07:40.407Z,993.48
2016-05-03T08:08:40.410Z,993.55
2016-05-03T08:09:40.412Z,993.53
2016-05-03T08:10:40.414Z,993.54
2016-05-03T08:11:40.434Z,993.5
2016-05-03T08:12:40.436Z,993.5
2016-05-03T08:13:40.453Z,993.59
2016-05-03T08:14:40.457Z,993.63
2016-05-03T08:15:40.459Z,993.59
2016-05-03T08:16:40.462Z,993.61
2016-05-03T08:17:40.465Z,993.62
2016-05-03T08:18:40.467Z,993.66
2016-05-03T08:19:40.470Z,993.64
2016-05-03T08:20:40.488Z,993.71
2016-05-03T08:21:40.491Z,993.69
2016-05-03T08:22:40.494Z,993.65
2016-05-03T08:23:40.512Z,993.71
2016-05-03T08:24:40.514Z,993.64
2016-05-03T08:25:40.517Z,993.63
2016-05-03T08:26:40.520Z,993.67
2016-05-03T08:27:40.538Z,993.7
2016-05-03T08:28:40.541Z,993.72
2016-05-03T08:29:40.544Z,993.75
2016-05-03T08:30:40.547Z,993.7
2016-05-03T08:31:40.549Z,993.74
2016-05-03T08:32:40.552Z,993.79
2016-05-03T08:33:40.570Z,993.76
2016-05-03T08:34:40.573Z,993.84
2016-05-03T08:35:40.591Z,993.89
2016-05-03T08:36:40.578Z,993.76
2016-05-03T08:37:40.612Z,993.76
2016-05-03T08:38:40.599Z,993.64
2016-05-03T08:39:40.601Z,993.69
2016-05-03T08:40:40.604Z,993.62
2016-05-03T08:41:40.623Z,993.62
2016-05-03T08:42:40.625Z,993.58
2016-05-03T08:43:40.628Z,993.59
2016-05-03T08:44:40.632Z,993.69
2016-05-03T08:45:40.650Z,993.64
2016-05-03T08:46:40.652Z,993.61
2016-05-03T08:47:40.656Z,993.66
2016-05-03T08:48:40.673Z,993.62
2016-05-03T08:49:40.675Z,993.62
2016-05-03T08:50:40.678Z,993.64
2016-05-03T08:51:40.697Z,993.65
2016-05-03T08:52:40.699Z,993.64
2016-05-03T08:53:40.686Z,993.58
2016-05-03T08:54:40.705Z,993.56
2016-05-03T08:55:40.708Z,993.63
2016-05-03T08:56:40.711Z,993.63
2016-05-03T08:57:40.728Z,993.66
2016-05-03T08:58:40.731Z,993.65
2016-05-03T08:59:40.719Z,993.64
2016-05-03T09:00:40.752Z,993.66
2016-05-03T09:01:40.739Z,993.65
2016-05-03T09:02:40.741Z,993.66
2016-05-03T09:03:40.744Z,993.66
2016-05-03T09:04:40.747Z,993.63
2016-05-03T09:05:40.750Z,993.64
2016-05-03T09:06:40.768Z,993.59
2016-05-03T09:07:40.912Z,993.59
2016-05-03T09:08:40.774Z,993.55
2016-05-03T09:09:40.776Z,993.53
2016-05-03T09:10:40.779Z,993.57
2016-05-03T09:11:40.782Z,993.54
2016-05-03T09:12:40.785Z,993.5
2016-05-03T09:13:40.803Z,993.48
2016-05-03T09:14:40.806Z,993.46
2016-05-03T09:15:40.808Z,993.47
2016-05-03T09:16:40.811Z,993.49
2016-05-03T09:17:40.814Z,993.55
2016-05-03T09:18:40.816Z,993.51
2016-05-03T09:19:40.819Z,993.49
2016-05-03T09:20:40.822Z,993.53
2016-05-03T09:21:40.824Z,993.51
2016-05-03T09:22:40.832Z,993.49
2016-05-03T09:23:40.845Z,993.44
2016-05-03T09:24:40.848Z,993.43
2016-05-03T09:25:40.850Z,993.47
2016-05-03T09:26:40.838Z,993.49
2016-05-03T09:27:40.841Z,993.51
2016-05-03T09:28:40.859Z,993.55
2016-05-03T09:29:40.861Z,993.54
2016-05-03T09:30:40.864Z,993.54
2016-05-03T09:31:40.866Z,993.53
2016-05-03T09:32:40.869Z,993.59
2016-05-03T09:33:40.871Z,993.55
2016-05-03T09:34:40.875Z,993.54
2016-05-03T09:35:40.893Z,993.64
2016-05-03T09:36:40.880Z,993.66
2016-05-03T09:37:41.040Z,993.69
2016-05-03T09:38:40.885Z,993.66
2016-05-03T09:39:40.904Z,993.67
2016-05-03T09:40:40.907Z,993.64
2016-05-03T09:41:40.909Z,993.52
2016-05-03T09:42:40.912Z,993.55
2016-05-03T09:43:40.931Z,993.52
2016-05-03T09:44:40.934Z,993.51
2016-05-03T09:45:40.936Z,993.6
2016-05-03T09:46:40.939Z,993.57
2016-05-03T09:47:40.942Z,993.56
2016-05-03T09:48:40.944Z,993.67
2016-05-03T09:49:40.947Z,993.68
2016-05-03T09:50:40.949Z,993.56
2016-05-03T09:51:40.953Z,993.56
2016-05-03T09:52:40.955Z,993.6
2016-05-03T09:53:40.957Z,993.66
2016-05-03T09:54:40.976Z,993.61
2016-05-03T09:55:40.963Z,993.52
2016-05-03T09:56:40.997Z,993.53
2016-05-03T09:57:40.984Z,993.6
2016-05-03T09:58:40.986Z,993.59
2016-05-03T09:59:40.989Z,993.66
2016-05-03T10:00:41.007Z,993.63
2016-05-03T10:01:41.011Z,993.65
2016-05-03T10:02:40.997Z,993.68
2016-05-03T10:03:40.999Z,993.69
2016-05-03T10:04:41.018Z,993.69
2016-05-03T10:05:41.021Z,993.66
2016-05-03T10:06:41.023Z,993.69
2016-05-03T10:07:41.135Z,993.73
2016-05-03T10:08:41.029Z,993.66
2016-05-03T10:09:41.031Z,993.66
2016-05-03T10:10:41.034Z,993.61
2016-05-03T10:11:41.037Z,993.59
2016-05-03T10:12:41.040Z,993.57
2016-05-03T10:13:41.042Z,993.57
2016-05-03T10:14:41.060Z,993.59
2016-05-03T10:15:41.063Z,993.59
2016-05-03T10:16:41.066Z,993.58
2016-05-03T10:17:41.068Z,993.56
2016-05-03T10:18:41.071Z,993.59
2016-05-03T10:19:41.073Z,993.62
2016-05-03T10:20:41.077Z,993.59
2016-05-03T10:21:41.079Z,993.57
2016-05-03T10:22:41.253Z,993.7
2016-05-03T10:23:41.084Z,993.72
2016-05-03T10:24:41.087Z,993.55
2016-05-03T10:25:41.090Z,993.61
2016-05-03T10:26:41.093Z,993.54
2016-05-03T10:27:41.095Z,993.62
2016-05-03T10:28:41.098Z,993.48
2016-05-03T10:29:41.117Z,993.5
2016-05-03T10:30:41.119Z,993.51
2016-05-03T10:31:41.122Z,993.56
2016-05-03T10:32:41.125Z,993.62
2016-05-03T10:33:41.127Z,993.64
2016-05-03T10:34:41.146Z,993.64
2016-05-03T10:35:41.133Z,993.57
2016-05-03T10:36:41.152Z,993.55
2016-05-03T10:37:41.154Z,993.61
2016-05-03T10:38:41.157Z,993.63
2016-05-03T10:39:41.160Z,993.75
2016-05-03T10:40:41.162Z,993.78
2016-05-03T10:41:41.165Z,993.82
2016-05-03T10:42:41.168Z,993.79
2016-05-03T10:43:41.185Z,993.77
2016-05-03T10:44:41.173Z,993.82
2016-05-03T10:45:41.176Z,993.95
2016-05-03T10:46:41.193Z,993.92
2016-05-03T10:47:41.196Z,993.88
2016-05-03T10:48:41.198Z,993.83
2016-05-03T10:49:41.201Z,993.86
2016-05-03T10:50:41.204Z,993.83
2016-05-03T10:51:41.207Z,993.88
2016-05-03T10:52:41.210Z,993.93
2016-05-03T10:53:41.212Z,993.83
2016-05-03T10:54:41.214Z,993.88
2016-05-03T10:55:41.218Z,993.89
2016-05-03T10:56:41.220Z,993.96
2016-05-03T10:57:41.223Z,994
2016-05-03T10:58:41.226Z,994.03
2016-05-03T10:59:41.228Z,994.06
2016-05-03T11:00:41.247Z,994.07
2016-05-03T11:01:41.250Z,994.04
2016-05-03T11:02:41.236Z,994.09
2016-05-03T11:03:41.239Z,994.13
2016-05-03T11:04:41.242Z,994.13
2016-05-03T11:05:41.244Z,994.16
2016-05-03T11:06:41.263Z,994.2
2016-05-03T11:07:41.266Z,994.29
2016-05-03T11:08:41.252Z,994.25
2016-05-03T11:09:41.272Z,994.26
2016-05-03T11:10:41.258Z,994.27
2016-05-03T11:11:41.276Z,994.33
2016-05-03T11:12:41.264Z,994.32
2016-05-03T11:13:41.265Z,994.27
2016-05-03T11:14:41.268Z,994.32
2016-05-03T11:15:41.271Z,994.25
2016-05-03T11:16:41.274Z,994.29
2016-05-03T11:17:41.293Z,994.32
2016-05-03T11:18:41.279Z,994.31
2016-05-03T11:19:41.282Z,994.37
2016-05-03T11:20:41.284Z,994.37
2016-05-03T11:21:41.288Z,994.3
2016-05-03T11:22:41.290Z,994.37
2016-05-03T11:23:41.293Z,994.56
2016-05-03T11:24:41.281Z,994.5
2016-05-03T11:25:41.298Z,994.47
2016-05-03T11:26:41.286Z,994.48
2016-05-03T11:27:41.289Z,994.52
2016-05-03T11:28:41.291Z,994.47
2016-05-03T11:29:41.294Z,994.52
2016-05-03T11:30:41.297Z,994.52
2016-05-03T11:31:41.299Z,994.52
2016-05-03T11:32:41.364Z,994.55
2016-05-03T11:33:41.305Z,994.54
2016-05-03T11:34:41.307Z,994.5
2016-05-03T11:35:41.310Z,994.62
2016-05-03T11:36:41.313Z,994.61
2016-05-03T11:37:41.315Z,994.63
2016-05-03T11:38:41.318Z,994.65
2016-05-03T11:39:41.321Z,994.65
2016-05-03T11:40:41.323Z,994.55
2016-05-03T11:41:41.311Z,994.53
2016-05-03T11:42:41.313Z,994.58
2016-05-03T11:43:41.316Z,994.56
2016-05-03T11:44:41.319Z,994.6
2016-05-03T11:45:41.321Z,994.64
2016-05-03T11:46:41.323Z,994.64
2016-05-03T11:47:41.326Z,994.67
2016-05-03T11:48:41.329Z,994.64
2016-05-03T11:49:41.316Z,994.68
2016-05-03T11:50:41.319Z,994.7
2016-05-03T11:51:41.337Z,994.74
2016-05-03T11:52:41.324Z,994.75
2016-05-03T11:53:41.326Z,994.74
2016-05-03T11:54:41.330Z,994.76
2016-05-03T11:55:41.332Z,994.81
2016-05-03T11:56:41.335Z,994.81
2016-05-03T11:57:41.322Z,994.84
2016-05-03T11:58:41.325Z,994.87
2016-05-03T11:59:41.328Z,994.83
2016-05-03T12:00:41.330Z,994.95
2016-05-03T12:01:41.334Z,994.91
2016-05-03T12:02:41.320Z,994.95
2016-05-03T12:03:41.322Z,994.91
2016-05-03T12:04:41.325Z,994.97
2016-05-03T12:05:41.344Z,994.94
2016-05-03T12:06:41.331Z,994.95
2016-05-03T12:07:41.537Z,994.93
2016-05-03T12:08:41.336Z,995
2016-05-03T12:09:41.339Z,994.98
2016-05-03T12:10:41.342Z,995.07
2016-05-03T12:11:41.407Z,995.1
2016-05-03T12:12:41.410Z,995.08
2016-05-03T12:13:41.334Z,995.07
2016-05-03T12:14:41.338Z,995.09
2016-05-03T12:15:41.340Z,995.09
2016-05-03T12:16:41.326Z,995.13
2016-05-03T12:17:41.329Z,995.14
2016-05-03T12:18:41.332Z,995.1
2016-05-03T12:19:41.335Z,995.15
2016-05-03T12:20:41.338Z,995.17
2016-05-03T12:21:41.340Z,995.17
2016-05-03T12:22:41.343Z,995.17
2016-05-03T12:23:41.346Z,995.15
2016-05-03T12:24:41.333Z,995.1
2016-05-03T12:25:41.351Z,995.14
2016-05-03T12:26:41.353Z,995.2
2016-05-03T12:27:41.340Z,995.28
2016-05-03T12:28:41.343Z,995.26
2016-05-03T12:29:41.345Z,995.28
2016-05-03T12:30:41.348Z,995.31